Denver, CO

3:25 AM MDT on August 29, 2016 (GMT -0600)
Geography and Env. Sciences, CU Denver | | Change Station

Elev 5225 ft 39.75 °N, 105.00 °W | Updated 4 minutes ago

Mostly Cloudy
Mostly Cloudy
64.0 °F
Feels Like 64.0 °F
N
17.0
Wind Variable Wind from East
Gusts 22.0 mph

Today
High -- | Low -- °F
--% Chance of Precip.
Yesterday
High -- | Low -- °F
Precip. -- in
Pressure 30.13 in
Visibility 10.0 miles
Clouds Scattered Clouds 9000 ft
Scattered Clouds 12000 ft
Mostly Cloudy 20000 ft
Dew Point 48 °F
Humidity 56%
Rainfall 0.00 in
Snow Depth Not available.
6:25 AM 7:34 PM
Waning Crescent, 10% visible
METAR KAPA 290853Z 20013G21KT 10SM SCT090CB SCT120 BKN200 16/07 A3033 RMK AO2 SLP201 CB VC E MOV SW 60000 T01610072 55002
Pressure 30.13 in
Visibility 10.0 miles
Clouds Scattered Clouds 9000 ft
Scattered Clouds 12000 ft
Mostly Cloudy 20000 ft
Dew Point 48 °F
Humidity 56%
Rainfall 0.00 in
Snow Depth Not available.
6:25 AM 7:34 PM
Waning Crescent, 10% visible
METAR KAPA 290853Z 20013G21KT 10SM SCT090CB SCT120 BKN200 16/07 A3033 RMK AO2 SLP201 CB VC E MOV SW 60000 T01610072 55002

10-Day Weather Forecast

Almanac

Astronomy

Aug. 29, 2016 Rise Set
Actual Time
Civil Twilight
Nautical Twilight
Astronomical Twilight
Moon
Length of Visible Light
Length of Day
Tomorrow will be .
, % of the Moon is Illuminated

Today's Extremes

State Highs State Lows

Community

WunderPhotos

Upload Photos

1,935,798 photos uploaded!

WunderBlog® & News

Nearby

Air Quality

  Air Quality AQ Index Pollutant
Not available.

Snow Depth

Station Depth Elevation

Earthquake Activity

City Distance Mag. Time & Date
Minimum magnitude displayed is 2.5.

Coastal Water Temperatures

Place Temperature

Stations

Nearby Weather Stations

Station Location Temp. Windchill Dew Point Humidity Wind Precip. Elev Updated Type
                   

Watches & Warnings

There are currently no watches in effect.